Time;durP1;ratioP1;P1;durP2;ratioP2;P2;SDS_P1;SDS_P2;PMS_P1;PMS_P2;Temp;Humidity;BMP_temperature;BMP_pressure;BME280_temperature;BME280_humidity;BME280_pressure;Samples;Min_cycle;Max_cycle;Signal;HPM_P1;HPM_P2
2021/01/04 08:52:48;;;;;;;7.57;3.30;;;18.00;41.10;;;;;;4171203;27;20364;-75
2021/01/04 08:55:27;;;;;;;7.40;2.92;;;17.70;40.00;;;;;;4150752;28;20111;-75
2021/01/04 08:57:48;;;;;;;9.38;3.17;;;17.50;40.70;;;;;;4153927;28;20126;-73
2021/01/04 09:00:19;;;;;;;6.22;2.42;;;17.80;42.50;;;;;;4157942;28;20195;-69
2021/01/04 09:02:44;;;;;;;6.03;2.25;;;17.90;43.30;;;;;;4150619;28;20149;-70
2021/01/04 09:05:08;;;;;;;5.75;2.25;;;18.10;43.40;;;;;;4135546;28;20160;-66
2021/01/04 09:07:31;;;;;;;5.10;2.55;;;18.30;43.50;;;;;;4130377;28;20142;-65
2021/01/04 09:09:59;;;;;;;7.85;2.35;;;18.50;43.90;;;;;;4179854;28;20106;-65
2021/01/04 09:12:36;;;;;;;5.30;2.00;;;18.70;44.00;;;;;;4138881;28;20103;-67
2021/01/04 09:14:59;;;;;;;3.78;2.10;;;18.80;44.30;;;;;;4156433;28;20056;-65
2021/01/04 09:17:45;;;;;;;3.78;2.10;;;18.90;44.40;;;;;;4151397;28;20130;-65
2021/01/04 09:20:46;;;;;;;4.75;1.73;;;19.00;44.60;;;;;;4204231;28;20054;-65
2021/01/04 09:23:11;;;;;;;8.40;1.92;;;19.10;44.80;;;;;;4176112;28;20124;-69
2021/01/04 09:25:49;;;;;;;3.20;1.77;;;19.20;45.10;;;;;;4167930;28;20189;-66
2021/01/04 09:28:11;;;;;;;3.10;1.30;;;19.30;45.20;;;;;;4141538;28;20519;-67
2021/01/04 09:30:31;;;;;;;4.63;1.80;;;19.40;45.30;;;;;;4143714;28;20454;-65
2021/01/04 09:33:05;;;;;;;2.38;1.65;;;19.40;45.40;;;;;;4148188;28;20061;-67
2021/01/04 09:35:27;;;;;;;;;;;19.50;45.50;;;;;;4146257;28;20881;-67
2021/01/04 09:37:49;;;;;;;2.78;1.77;;;19.60;45.50;;;;;;4127492;28;20385;-72
2021/01/04 09:40:19;;;;;;;3.85;1.75;;;19.70;45.60;;;;;;4156979;28;20145;-82
2021/01/04 09:42:40;;;;;;;5.07;1.58;;;19.70;45.60;;;;;;4154753;28;20103;-65
2021/01/04 09:45:15;;;;;;;4.00;1.55;;;19.80;45.50;;;;;;4176394;28;20105;-66
2021/01/04 09:47:42;;;;;;;5.07;1.88;;;19.80;45.30;;;;;;4145175;28;20065;-61
2021/01/04 09:50:13;;;;;;;4.65;1.60;;;19.80;45.30;;;;;;4166761;28;20666;-69
2021/01/04 09:52:41;;;;;;;2.77;1.70;;;19.90;45.10;;;;;;4242122;28;20062;-66
2021/01/04 09:55:09;;;;;;;3.75;1.63;;;19.90;45.40;;;;;;4242661;28;20058;-69
2021/01/04 09:57:35;;;;;;;2.60;1.38;;;19.90;44.80;;;;;;4241501;28;20147;-67
2021/01/04 09:59:57;;;;;;;2.90;2.00;;;19.90;44.70;;;;;;4161047;28;20278;-68
2021/01/04 10:02:23;;;;;;;;;;;20.00;44.70;;;;;;4154223;28;20056;-72
2021/01/04 10:04:43;;;;;;;2.03;1.58;;;20.00;44.60;;;;;;4185764;28;20393;-61
2021/01/04 10:07:10;;;;;;;2.50;1.40;;;20.10;44.40;;;;;;4142432;28;20131;-69
2021/01/04 10:09:35;;;;;;;2.63;1.60;;;20.10;44.40;;;;;;4140841;28;20056;-67
2021/01/04 10:12:02;;;;;;;3.20;1.63;;;20.20;44.20;;;;;;4144539;28;20056;-67
2021/01/04 10:14:22;;;;;;;2.85;1.50;;;20.20;44.30;;;;;;4145260;28;20064;-67
2021/01/04 10:16:54;;;;;;;2.00;1.10;;;20.20;44.40;;;;;;4179531;28;20540;-67
2021/01/04 10:19:22;;;;;;;1.50;1.23;;;20.30;44.50;;;;;;4184445;28;20061;-66
2021/01/04 10:21:51;;;;;;;2.33;1.08;;;20.30;44.70;;;;;;4136689;28;20092;-64
2021/01/04 10:24:20;;;;;;;1.38;1.27;;;20.40;44.60;;;;;;4138168;28;20060;-65
2021/01/04 10:26:46;;;;;;;2.72;1.15;;;20.40;44.70;;;;;;4144765;28;20087;-67
2021/01/04 10:29:06;;;;;;;2.97;1.17;;;20.40;44.80;;;;;;4140855;28;20103;-65
2021/01/04 10:31:29;;;;;;;1.98;1.30;;;20.50;44.90;;;;;;4137516;28;20396;-67
2021/01/04 10:34:05;;;;;;;2.10;1.33;;;20.50;45.30;;;;;;4136536;28;20072;-67
2021/01/04 10:36:26;;;;;;;2.03;1.00;;;20.60;44.90;;;;;;4136501;28;20060;-70
2021/01/04 10:38:55;;;;;;;1.88;1.50;;;20.60;44.90;;;;;;4122221;28;20088;-66
2021/01/04 10:41:18;;;;;;;2.65;0.95;;;20.60;44.90;;;;;;4122229;28;20546;-75
2021/01/04 10:43:39;;;;;;;1.47;1.13;;;20.70;45.10;;;;;;4122325;28;20080;-78
2021/01/04 10:46:00;;;;;;;2.17;1.52;;;20.70;45.10;;;;;;4122494;28;20359;-62
2021/01/04 10:48:26;;;;;;;1.83;1.15;;;20.70;45.10;;;;;;4136675;28;20114;-68
2021/01/04 10:50:51;;;;;;;2.88;1.20;;;20.80;45.00;;;;;;4140521;28;20057;-76
2021/01/04 10:53:26;;;;;;;2.60;0.88;;;20.70;44.80;;;;;;4142935;28;20554;-71
2021/01/04 10:55:58;;;;;;;3.00;1.55;;;20.80;44.90;;;;;;4135309;28;20081;-71
2021/01/04 10:58:28;;;;;;;1.60;1.10;;;20.80;44.90;;;;;;4136330;28;20071;-70
2021/01/04 11:00:56;;;;;;;1.80;1.00;;;20.90;45.00;;;;;;4149801;28;20084;-72
2021/01/04 11:03:19;;;;;;;2.42;1.42;;;20.90;44.90;;;;;;4136575;28;20072;-72
2021/01/04 11:05:42;;;;;;;4.07;1.23;;;20.90;45.00;;;;;;4136331;28;20438;-70
2021/01/04 11:08:30;;;;;;;2.75;1.05;;;20.90;44.90;;;;;;4139757;28;20131;-71
2021/01/04 11:10:59;;;;;;;1.45;1.10;;;21.00;44.90;;;;;;4118879;28;20574;-65
2021/01/04 11:13:31;;;;;;;5.30;1.20;;;21.10;45.00;;;;;;4128919;28;20080;-66
2021/01/04 11:16:06;;;;;;;4.13;1.10;;;21.20;44.90;;;;;;4128373;28;20058;-66
2021/01/04 11:18:26;;;;;;;2.85;0.98;;;21.20;44.80;;;;;;4128150;28;20432;-66
2021/01/04 11:20:50;;;;;;;3.05;0.90;;;21.30;44.70;;;;;;4145330;28;20133;-66
2021/01/04 11:23:14;;;;;;;2.10;1.30;;;21.30;44.60;;;;;;4145033;28;20072;-66
2021/01/04 11:25:35;;;;;;;2.38;1.40;;;21.30;44.50;;;;;;4144754;28;20850;-66
2021/01/04 11:27:56;;;;;;;1.67;1.10;;;21.40;44.50;;;;;;4144592;28;20868;-66
2021/01/04 11:30:20;;;;;;;1.42;0.85;;;21.40;44.40;;;;;;4144687;28;20098;-66
2021/01/04 11:32:40;;;;;;;1.80;0.90;;;21.40;44.40;;;;;;4143530;28;20075;-66
2021/01/04 11:35:04;;;;;;;2.22;1.08;;;21.40;44.20;;;;;;4144313;28;20568;-66
2021/01/04 11:37:25;;;;;;;0.90;0.60;;;21.40;44.20;;;;;;4144586;28;20577;-65
2021/01/04 11:39:46;;;;;;;1.80;1.33;;;21.50;44.20;;;;;;4143913;28;20170;-66
2021/01/04 11:42:07;;;;;;;1.15;0.90;;;21.50;44.10;;;;;;4172831;28;20150;-66
2021/01/04 11:44:30;;;;;;;1.27;0.60;;;21.50;44.00;;;;;;4213468;28;20062;-65
2021/01/04 11:46:53;;;;;;;2.33;0.80;;;21.60;44.10;;;;;;4211744;28;20063;-66
2021/01/04 11:49:16;;;;;;;2.53;0.98;;;21.60;44.00;;;;;;4227836;28;20103;-66
2021/01/04 11:51:36;;;;;;;1.55;1.10;;;21.60;44.00;;;;;;4184059;28;20131;-66
2021/01/04 11:53:57;;;;;;;1.58;0.95;;;21.70;44.30;;;;;;4189507;28;20063;-64
2021/01/04 11:56:18;;;;;;;1.80;0.90;;;21.70;43.70;;;;;;4212240;28;20090;-64
2021/01/04 11:58:39;;;;;;;1.50;0.90;;;21.70;43.70;;;;;;4210927;28;20093;-64
2021/01/04 12:01:02;;;;;;;2.17;0.70;;;21.70;43.60;;;;;;4211710;28;20067;-64
2021/01/04 12:03:25;;;;;;;3.47;0.85;;;21.70;43.60;;;;;;4210163;28;20498;-64
2021/01/04 12:05:45;;;;;;;1.13;0.70;;;21.70;43.50;;;;;;4139662;28;20539;-64
2021/01/04 12:08:08;;;;;;;0.75;0.70;;;21.80;43.50;;;;;;4127373;28;20299;-64
2021/01/04 12:10:29;;;;;;;1.70;0.70;;;21.80;43.50;;;;;;4140239;28;20182;-64
2021/01/04 12:12:53;;;;;;;1.63;0.93;;;21.80;43.50;;;;;;4127040;28;20089;-64
2021/01/04 12:15:15;;;;;;;2.58;1.05;;;21.80;43.40;;;;;;4127151;28;20065;-64
2021/01/04 12:17:36;;;;;;;1.48;0.98;;;21.80;43.40;;;;;;4127293;28;20085;-64
2021/01/04 12:19:58;;;;;;;1.42;0.75;;;21.80;43.40;;;;;;4126618;28;20054;-63
2021/01/04 12:22:22;;;;;;;3.08;0.90;;;21.90;43.40;;;;;;4127954;28;20092;-63
2021/01/04 12:24:47;;;;;;;0.80;0.70;;;21.90;43.40;;;;;;4127236;28;20057;-64
2021/01/04 12:27:10;;;;;;;2.70;0.90;;;21.90;43.90;;;;;;4127183;28;20134;-65
2021/01/04 12:29:34;;;;;;;1.63;0.90;;;21.90;43.30;;;;;;4127714;28;20577;-63
2021/01/04 12:31:57;;;;;;;1.52;1.23;;;21.90;43.30;;;;;;4140528;28;20091;-64
2021/01/04 12:34:20;;;;;;;2.17;1.17;;;21.90;43.30;;;;;;4127299;28;20271;-64
2021/01/04 12:36:45;;;;;;;3.72;1.23;;;22.00;43.20;;;;;;4127442;28;20065;-64
2021/01/04 12:39:08;;;;;;;3.20;1.50;;;22.00;43.70;;;;;;4127031;28;20062;-64
2021/01/04 12:41:38;;;;;;;4.35;1.65;;;22.00;43.20;;;;;;4127327;28;20099;-64
2021/01/04 12:43:58;;;;;;;6.65;2.10;;;22.00;43.20;;;;;;4139956;28;20062;-64
2021/01/04 12:46:19;;;;;;;8.10;2.85;;;22.00;43.10;;;;;;4127473;28;20108;-64
2021/01/04 12:48:43;;;;;;;6.88;2.40;;;22.10;43.20;;;;;;4127449;28;20588;-64
2021/01/04 12:51:03;;;;;;;9.82;3.33;;;22.10;43.10;;;;;;4139939;28;20141;-64
2021/01/04 12:53:26;;;;;;;8.63;3.50;;;22.10;43.10;;;;;;4169135;28;20156;-64
2021/01/04 12:55:46;;;;;;;13.90;4.50;;;22.20;43.10;;;;;;4212247;28;20105;-66
2021/01/04 12:58:09;;;;;;;13.27;4.15;;;22.20;43.00;;;;;;4117894;28;20937;-63
2021/01/04 13:00:29;;;;;;;10.30;3.93;;;22.20;43.10;;;;;;4118288;28;20104;-66
2021/01/04 13:02:51;;;;;;;12.60;5.03;;;22.20;43.10;;;;;;4119553;28;20289;-69
2021/01/04 13:05:14;;;;;;;13.40;5.35;;;22.20;43.20;;;;;;4119495;28;20511;-68
2021/01/04 13:07:37;;;;;;;11.48;5.18;;;22.30;43.40;;;;;;4116658;28;20551;-65
2021/01/04 13:10:00;;;;;;;12.75;5.45;;;22.30;43.40;;;;;;4113951;28;20064;-67
2021/01/04 13:12:21;;;;;;;;;;;22.40;43.50;;;;;;4116650;28;20504;-70
2021/01/04 13:14:47;;;;;;;13.48;6.30;;;22.30;43.60;;;;;;4118825;28;20660;-69
2021/01/04 13:17:07;;;;;;;13.10;5.82;;;22.40;43.50;;;;;;4116898;28;20101;-70
2021/01/04 13:19:30;;;;;;;13.88;6.75;;;22.50;43.60;;;;;;4118455;28;20097;-70
2021/01/04 13:21:53;;;;;;;14.05;6.38;;;22.40;43.50;;;;;;4117955;28;20509;-70
2021/01/04 13:24:16;;;;;;;13.70;6.25;;;22.50;43.60;;;;;;4118049;28;20057;-76
2021/01/04 13:26:42;;;;;;;13.52;5.85;;;22.50;43.60;;;;;;4123907;28;20050;-78
2021/01/04 13:29:02;;;;;;;16.23;6.82;;;22.50;43.80;;;;;;4121198;28;20100;-77
2021/01/04 13:31:27;;;;;;;16.90;7.38;;;22.50;43.80;;;;;;4117523;28;20137;-77
2021/01/04 13:33:47;;;;;;;15.10;6.43;;;22.50;43.80;;;;;;4118832;28;20120;-77
2021/01/04 13:36:10;;;;;;;14.25;6.22;;;22.40;43.70;;;;;;4116319;28;20066;-77
2021/01/04 13:38:31;;;;;;;13.52;6.68;;;22.40;43.80;;;;;;4118555;28;20053;-78
2021/01/04 13:40:51;;;;;;;15.93;6.85;;;22.40;43.80;;;;;;4123959;28;20062;-75
2021/01/04 13:43:12;;;;;;;17.10;6.77;;;22.40;43.80;;;;;;4120866;28;20085;-75
2021/01/04 13:45:34;;;;;;;17.80;6.40;;;22.40;43.90;;;;;;4120968;28;20285;-75
2021/01/04 13:47:54;;;;;;;12.45;5.60;;;22.30;44.00;;;;;;4127063;28;20076;-75
2021/01/04 13:50:15;;;;;;;13.30;5.75;;;22.30;44.00;;;;;;4128783;28;20069;-75
2021/01/04 13:52:37;;;;;;;13.68;7.05;;;22.30;44.00;;;;;;4134234;28;20116;-75
2021/01/04 13:55:00;;;;;;;14.32;6.75;;;22.30;44.10;;;;;;4213498;28;20457;-75
2021/01/04 13:57:25;;;;;;;11.35;5.55;;;22.30;44.10;;;;;;4149744;28;20201;-74
2021/01/04 13:59:46;;;;;;;16.50;6.70;;;22.30;44.20;;;;;;4129068;28;20093;-71
2021/01/04 14:02:12;;;;;;;17.63;6.63;;;22.20;43.30;;;;;;4128970;28;20465;-70
2021/01/04 14:04:32;;;;;;;15.57;5.80;;;22.10;43.70;;;;;;4127983;28;20133;-70
2021/01/04 14:06:56;;;;;;;16.60;6.45;;;22.10;44.20;;;;;;4141410;28;20065;-70
2021/01/04 14:09:19;;;;;;;17.00;6.68;;;22.10;44.20;;;;;;4128595;28;20129;-70
2021/01/04 14:11:43;;;;;;;16.10;6.95;;;22.10;44.10;;;;;;4129021;28;20523;-70
2021/01/04 14:14:05;;;;;;;15.55;7.05;;;22.00;43.80;;;;;;4128009;28;20089;-70
2021/01/04 14:16:28;;;;;;;15.50;6.95;;;22.00;43.80;;;;;;4129456;28;20057;-73
2021/01/04 14:18:48;;;;;;;13.70;6.43;;;21.90;43.70;;;;;;4123582;28;20056;-64
2021/01/04 14:21:09;;;;;;;12.45;5.30;;;21.90;43.70;;;;;;4121252;28;20134;-64
2021/01/04 14:23:30;;;;;;;11.50;5.25;;;21.80;42.20;;;;;;4123746;28;20102;-70
2021/01/04 14:25:54;;;;;;;15.70;5.57;;;21.70;42.80;;;;;;4128251;28;20133;-72
2021/01/04 14:28:14;;;;;;;9.75;5.38;;;21.70;43.00;;;;;;4125012;28;20115;-72
2021/01/04 14:30:37;;;;;;;11.18;5.18;;;21.70;43.10;;;;;;4124865;28;20068;-80
2021/01/04 14:32:57;;;;;;;14.15;6.15;;;21.70;43.10;;;;;;4127104;28;20049;-63
2021/01/04 14:35:18;;;;;;;10.27;5.67;;;21.70;43.30;;;;;;4123142;28;20219;-69
2021/01/04 14:37:41;;;;;;;9.70;5.35;;;21.70;43.50;;;;;;4121977;28;20732;-65
2021/01/04 14:40:08;;;;;;;17.10;5.50;;;21.70;43.30;;;;;;4123960;28;20050;-67
2021/01/04 14:42:30;;;;;;;12.63;4.60;;;21.70;43.40;;;;;;4119851;28;20057;-66
2021/01/04 14:44:54;;;;;;;8.48;4.68;;;21.70;43.60;;;;;;4122323;28;20116;-69
2021/01/04 14:47:18;;;;;;;11.25;5.38;;;21.70;43.60;;;;;;4121904;28;20058;-67
2021/01/04 14:49:38;;;;;;;12.27;4.80;;;21.70;43.70;;;;;;4121597;28;20065;-68
2021/01/04 14:52:01;;;;;;;10.55;5.05;;;21.60;43.60;;;;;;4135613;28;20135;-63
2021/01/04 14:54:25;;;;;;;11.23;4.82;;;21.60;44.30;;;;;;4142895;28;20103;-63
2021/01/04 14:56:45;;;;;;;11.55;4.72;;;21.60;43.80;;;;;;4140120;28;20722;-65
2021/01/04 14:59:06;;;;;;;9.43;4.20;;;21.60;43.60;;;;;;4139143;28;20064;-67
2021/01/04 15:01:26;;;;;;;11.43;4.40;;;21.60;43.60;;;;;;4140324;28;20056;-61
2021/01/04 15:03:46;;;;;;;7.10;3.87;;;21.60;43.90;;;;;;4140364;28;20171;-60
2021/01/04 15:06:07;;;;;;;7.53;2.97;;;21.50;42.80;;;;;;4136683;28;21006;-63
2021/01/04 15:08:30;;;;;;;6.93;3.33;;;21.40;42.70;;;;;;4135319;28;20167;-63
2021/01/04 15:10:51;;;;;;;7.38;3.45;;;21.30;42.90;;;;;;4122356;28;20523;-62
2021/01/04 15:13:11;;;;;;;13.48;4.60;;;21.30;42.80;;;;;;4142203;28;20566;-65
2021/01/04 15:15:37;;;;;;;12.13;3.35;;;21.30;43.00;;;;;;4136841;28;20328;-69
2021/01/04 15:17:57;;;;;;;14.13;3.83;;;21.40;43.10;;;;;;4125851;28;20453;-64
2021/01/04 15:20:19;;;;;;;31.67;4.07;;;21.40;43.10;;;;;;4139231;28;20526;-65
2021/01/04 15:22:42;;;;;;;16.38;4.13;;;21.40;43.40;;;;;;4123413;28;20417;-66
2021/01/04 15:25:03;;;;;;;21.20;3.63;;;21.40;43.90;;;;;;4121355;28;20086;-73
2021/01/04 15:27:27;;;;;;;19.00;4.30;;;21.30;43.90;;;;;;4133700;28;20076;-70
2021/01/04 15:29:50;;;;;;;15.32;3.50;;;21.30;44.00;;;;;;4134166;28;20573;-66
2021/01/04 15:32:11;;;;;;;10.80;3.88;;;21.20;43.90;;;;;;4140309;28;20087;-67
2021/01/04 15:34:34;;;;;;;11.30;3.17;;;21.20;44.00;;;;;;4135596;28;20080;-72
2021/01/04 15:36:59;;;;;;;9.43;3.05;;;21.10;44.00;;;;;;4140493;28;20083;-73
2021/01/04 15:39:20;;;;;;;11.20;3.13;;;21.10;44.10;;;;;;4136319;28;20231;-67
2021/01/04 15:41:52;;;;;;;8.90;3.65;;;21.10;44.10;;;;;;4121501;28;20077;-67
2021/01/04 15:44:13;;;;;;;8.70;2.90;;;21.00;44.10;;;;;;4136358;28;20516;-67
2021/01/04 15:46:33;;;;;;;10.00;3.57;;;21.00;44.00;;;;;;4121355;28;20061;-66
2021/01/04 15:48:54;;;;;;;7.72;3.20;;;21.00;44.00;;;;;;4126885;28;20115;-76
2021/01/04 15:51:26;;;;;;;11.55;3.85;;;20.90;44.10;;;;;;4135586;28;20068;-76
2021/01/04 15:53:49;;;;;;;7.45;2.97;;;20.90;44.00;;;;;;4137119;28;20107;-76
2021/01/04 15:56:12;;;;;;;9.57;3.15;;;20.80;44.00;;;;;;4122284;28;20103;-76
2021/01/04 15:58:32;;;;;;;5.93;2.67;;;20.80;44.00;;;;;;4119464;28;20139;-77
2021/01/04 16:00:53;;;;;;;7.17;2.87;;;20.80;44.10;;;;;;4128848;28;20065;-76
2021/01/04 16:03:14;;;;;;;8.57;3.33;;;20.80;44.10;;;;;;4139310;28;20520;-77
2021/01/04 16:05:35;;;;;;;8.63;3.10;;;20.70;44.10;;;;;;4216613;28;20088;-77
2021/01/04 16:07:55;;;;;;;10.68;3.25;;;20.70;44.20;;;;;;4145530;28;20069;-76
2021/01/04 16:10:15;;;;;;;6.40;3.30;;;20.70;44.30;;;;;;4144044;28;20057;-77
2021/01/04 16:12:36;;;;;;;6.15;2.92;;;20.70;44.20;;;;;;4144094;28;20060;-72
2021/01/04 16:14:57;;;;;;;9.20;2.67;;;20.60;44.20;;;;;;4137529;28;20455;-71
2021/01/04 16:17:18;;;;;;;6.88;3.00;;;20.60;44.10;;;;;;4131504;28;20065;-68
2021/01/04 16:19:41;;;;;;;14.10;2.72;;;20.70;44.40;;;;;;4128610;28;20100;-68
2021/01/04 16:22:09;;;;;;;9.88;2.60;;;20.70;44.20;;;;;;4113692;28;20081;-68
2021/01/04 16:24:30;;;;;;;12.90;2.60;;;20.70;44.40;;;;;;4129724;28;20061;-68
2021/01/04 16:26:51;;;;;;;10.50;2.65;;;20.70;44.50;;;;;;4213416;28;20087;-74
2021/01/04 16:29:11;;;;;;;9.00;1.90;;;20.70;44.30;;;;;;4143752;28;20103;-73
2021/01/04 16:31:32;;;;;;;10.43;2.20;;;20.70;44.40;;;;;;4216205;28;20078;-75
2021/01/04 16:33:53;;;;;;;13.18;2.33;;;20.60;44.40;;;;;;4216357;28;20058;-73
2021/01/04 16:36:14;;;;;;;14.10;2.60;;;20.70;44.60;;;;;;4144030;28;20064;-75
2021/01/04 16:38:38;;;;;;;7.43;1.80;;;20.60;44.60;;;;;;4144201;28;20057;-73
2021/01/04 16:41:01;;;;;;;6.18;2.30;;;20.60;44.70;;;;;;4144376;28;20102;-75
2021/01/04 16:43:23;;;;;;;6.15;2.53;;;20.60;44.80;;;;;;4215952;28;20055;-74
2021/01/04 16:45:43;;;;;;;8.60;2.40;;;20.60;44.80;;;;;;4216284;28;20054;-75
2021/01/04 16:48:08;;;;;;;7.85;2.17;;;20.50;44.80;;;;;;4143876;28;20083;-75
2021/01/04 16:50:29;;;;;;;9.93;2.30;;;20.50;44.90;;;;;;4143729;28;20519;-77
2021/01/04 16:52:49;;;;;;;6.45;2.03;;;20.50;44.90;;;;;;4144646;28;20138;-76
2021/01/04 16:55:15;;;;;;;8.27;2.63;;;20.50;44.90;;;;;;4144467;28;20139;-77
2021/01/04 16:57:38;;;;;;;5.78;2.10;;;20.50;44.80;;;;;;4144462;28;20364;-75
2021/01/04 16:59:58;;;;;;;10.88;1.98;;;20.50;44.90;;;;;;4144535;28;20057;-76
2021/01/04 17:02:22;;;;;;;6.68;1.63;;;20.40;44.90;;;;;;4144223;28;20103;-76
2021/01/04 17:04:45;;;;;;;;;;;20.40;44.80;;;;;;4144833;28;20522;-77
2021/01/04 17:07:07;;;;;;;6.57;2.08;;;20.40;44.80;;;;;;4143780;28;19966;-77
2021/01/04 17:09:30;;;;;;;7.95;2.05;;;20.40;44.80;;;;;;4144542;28;20069;-77
2021/01/04 17:11:55;;;;;;;7.45;2.58;;;20.30;44.80;;;;;;4144093;28;20107;-78
2021/01/04 17:14:20;;;;;;;6.57;2.08;;;20.30;44.90;;;;;;4146351;28;20096;-63
2021/01/04 17:16:41;;;;;;;7.72;2.30;;;20.30;44.70;;;;;;4141210;28;20068;-68
2021/01/04 17:19:01;;;;;;;;;;;20.30;44.90;;;;;;4137582;28;20065;-69
2021/01/04 17:21:22;;;;;;;5.10;1.60;;;20.40;45.00;;;;;;4120309;28;19932;-70
2021/01/04 17:23:43;;;;;;;;;;;20.40;45.20;;;;;;4094120;28;20585;-72
2021/01/04 17:26:03;;;;;;;6.72;1.77;;;20.40;45.30;;;;;;4136529;28;19931;-74
2021/01/04 17:28:24;;;;;;;7.05;1.80;;;20.40;45.10;;;;;;4138595;28;20061;-73
2021/01/04 17:30:45;;;;;;;5.63;1.58;;;20.40;45.10;;;;;;4121758;28;20333;-69
2021/01/04 17:33:08;;;;;;;3.75;1.20;;;20.40;45.10;;;;;;4166991;28;20111;-71
2021/01/04 17:35:31;;;;;;;4.90;1.80;;;20.40;45.20;;;;;;4134606;28;20109;-69
2021/01/04 17:37:51;;;;;;;2.97;1.58;;;20.40;45.10;;;;;;4137313;28;20115;-64
2021/01/04 17:40:12;;;;;;;5.50;1.52;;;20.40;45.20;;;;;;4141087;28;20104;-65
2021/01/04 17:42:46;;;;;;;6.35;1.60;;;20.40;45.10;;;;;;4138373;28;20146;-64
2021/01/04 17:45:09;;;;;;;6.32;1.58;;;20.40;45.20;;;;;;4137017;28;20405;-65
2021/01/04 17:47:32;;;;;;;4.50;1.50;;;20.40;45.10;;;;;;4135685;28;20061;-65
2021/01/04 17:49:54;;;;;;;5.15;1.70;;;20.40;45.00;;;;;;4135174;28;20186;-67
2021/01/04 17:52:14;;;;;;;5.22;1.25;;;20.40;45.00;;;;;;4135563;28;20084;-67
2021/01/04 17:54:35;;;;;;;5.15;1.40;;;20.40;45.10;;;;;;4135507;28;20077;-70
2021/01/04 17:56:56;;;;;;;;;;;20.40;45.10;;;;;;4124991;28;20108;-75
2021/01/04 17:59:18;;;;;;;5.05;1.65;;;20.40;45.90;;;;;;4124926;28;20000;-77
2021/01/04 18:01:40;;;;;;;2.67;1.30;;;20.50;45.50;;;;;;4141007;28;20056;-77
2021/01/04 18:04:00;;;;;;;5.30;1.40;;;20.50;45.40;;;;;;4139492;28;20151;-75
2021/01/04 18:06:23;;;;;;;2.40;0.90;;;20.40;45.40;;;;;;4122863;28;20085;-73
2021/01/04 18:08:45;;;;;;;5.68;1.73;;;20.50;45.50;;;;;;4135019;28;20118;-70
2021/01/04 18:11:05;;;;;;;3.92;1.52;;;20.40;45.40;;;;;;4138076;28;20122;-75
2021/01/04 18:13:26;;;;;;;;;;;20.40;45.40;;;;;;4138077;28;20058;-74
2021/01/04 18:15:47;;;;;;;3.20;1.17;;;20.40;45.50;;;;;;4139444;28;20403;-73
2021/01/04 18:18:09;;;;;;;4.25;1.50;;;20.50;45.60;;;;;;4132087;28;20542;-74
2021/01/04 18:20:29;;;;;;;3.53;1.00;;;20.40;45.50;;;;;;4139090;28;20060;-70
2021/01/04 18:22:50;;;;;;;4.95;1.20;;;20.50;45.70;;;;;;4139450;28;20057;-82
2021/01/04 18:25:12;;;;;;;3.45;1.63;;;20.40;45.50;;;;;;4136917;28;20100;-78
2021/01/04 18:27:33;;;;;;;3.70;1.52;;;20.40;45.60;;;;;;4136112;28;20057;-75
2021/01/04 18:29:53;;;;;;;3.65;1.30;;;20.40;45.60;;;;;;4118378;28;20072;-80
2021/01/04 18:32:14;;;;;;;3.63;1.45;;;20.40;45.60;;;;;;4118215;28;20100;-78
2021/01/04 18:34:37;;;;;;;3.33;1.15;;;20.40;45.70;;;;;;4125841;28;20065;-80
2021/01/04 18:36:58;;;;;;;4.13;1.20;;;20.40;45.70;;;;;;4115706;28;20133;-73
2021/01/04 18:39:20;;;;;;;5.03;1.33;;;20.40;46.00;;;;;;4129396;28;20065;-72
2021/01/04 18:41:41;;;;;;;6.32;1.27;;;20.40;45.90;;;;;;4132915;28;20103;-76
2021/01/04 18:44:08;;;;;;;4.18;1.00;;;20.40;46.20;;;;;;4129301;28;20053;-75
2021/01/04 18:46:29;;;;;;;5.43;1.20;;;20.40;45.60;;;;;;4138066;28;20103;-75
2021/01/04 18:48:50;;;;;;;4.75;1.08;;;20.30;45.70;;;;;;4145618;28;20181;-75
2021/01/04 18:51:11;;;;;;;2.92;1.08;;;20.30;45.70;;;;;;4130727;28;20084;-74
2021/01/04 18:53:57;;;;;;;4.15;1.20;;;20.20;45.70;;;;;;4145032;28;20091;-74
2021/01/04 18:56:27;;;;;;;6.38;1.33;;;20.20;45.70;;;;;;4145313;28;20092;-74
2021/01/04 18:58:46;;;;;;;4.72;1.40;;;20.20;45.70;;;;;;4145332;28;20254;-74
2021/01/04 19:01:12;;;;;;;2.83;1.30;;;20.20;45.60;;;;;;4130419;28;20417;-74
2021/01/04 19:03:32;;;;;;;5.53;1.48;;;20.10;45.70;;;;;;4130736;28;20088;-73
2021/01/04 19:05:55;;;;;;;3.45;1.10;;;20.10;45.60;;;;;;4144766;28;20064;-73
2021/01/04 19:08:19;;;;;;;3.67;1.00;;;20.10;45.60;;;;;;4130839;28;20149;-74
2021/01/04 19:10:40;;;;;;;2.85;0.93;;;20.10;45.50;;;;;;4145275;28;20149;-74
2021/01/04 19:13:03;;;;;;;3.53;1.15;;;20.00;45.40;;;;;;4145242;28;20052;-74
2021/01/04 19:15:23;;;;;;;4.05;1.42;;;20.00;45.40;;;;;;4145486;28;20069;-75
2021/01/04 19:17:49;;;;;;;2.03;0.90;;;20.00;45.30;;;;;;4140306;28;20091;-74
2021/01/04 19:20:10;;;;;;;1.90;0.80;;;20.00;45.30;;;;;;4123233;28;20081;-73
2021/01/04 19:22:35;;;;;;;2.85;0.90;;;20.00;45.20;;;;;;4135987;28;20092;-73
2021/01/04 19:24:59;;;;;;;2.55;0.95;;;20.00;45.10;;;;;;4136304;28;20061;-73
2021/01/04 19:27:20;;;;;;;4.40;1.10;;;20.00;45.30;;;;;;4137304;28;20056;-75
2021/01/04 19:29:40;;;;;;;2.55;0.80;;;20.10;45.40;;;;;;4141413;28;20133;-77
2021/01/04 19:32:07;;;;;;;;;;;20.00;45.40;;;;;;4136486;28;20103;-78
2021/01/04 19:34:28;;;;;;;2.00;0.80;;;20.10;45.60;;;;;;4137991;28;19996;-73
2021/01/04 19:36:53;;;;;;;2.47;1.08;;;20.10;45.60;;;;;;4137333;28;20060;-73
2021/01/04 19:39:18;;;;;;;2.95;1.23;;;20.10;45.70;;;;;;4135405;28;20102;-73
2021/01/04 19:41:42;;;;;;;5.78;1.40;;;20.10;45.70;;;;;;4138235;28;20134;-76
2021/01/04 19:44:02;;;;;;;2.28;1.42;;;20.10;45.70;;;;;;4136380;28;20095;-72
2021/01/04 19:46:24;;;;;;;4.65;1.38;;;20.10;45.80;;;;;;4135519;28;20056;-72
2021/01/04 19:48:45;;;;;;;2.95;1.30;;;20.10;45.80;;;;;;4135535;28;20052;-75
2021/01/04 19:51:07;;;;;;;1.45;0.95;;;20.10;45.80;;;;;;4120782;28;20783;-77
2021/01/04 19:53:28;;;;;;;4.50;1.63;;;20.00;45.90;;;;;;4136285;28;20048;-75
2021/01/04 19:55:49;;;;;;;3.55;1.50;;;20.10;45.90;;;;;;4120952;28;20101;-73
2021/01/04 19:58:10;;;;;;;;;;;20.10;45.90;;;;;;4135182;28;20124;-76
2021/01/04 20:00:33;;;;;;;3.50;1.33;;;20.00;45.90;;;;;;4120730;28;19937;-75
2021/01/04 20:02:53;;;;;;;3.80;1.55;;;20.10;46.00;;;;;;4134550;28;20088;-77
2021/01/04 20:05:14;;;;;;;3.60;1.23;;;20.10;46.00;;;;;;4135798;28;20053;-73
2021/01/04 20:07:35;;;;;;;;;;;20.10;46.10;;;;;;4136128;28;20466;-74
2021/01/04 20:09:55;;;;;;;;;;;20.10;46.80;;;;;;4135620;28;19978;-74
2021/01/04 20:12:15;;;;;;;3.55;1.13;;;20.10;46.90;;;;;;4135498;28;19933;-73
2021/01/04 20:14:39;;;;;;;3.70;1.77;;;20.10;46.30;;;;;;4134425;28;20369;-73
2021/01/04 20:17:02;;;;;;;3.05;1.27;;;20.00;46.30;;;;;;4139023;28;20404;-69
2021/01/04 20:19:26;;;;;;;5.03;2.05;;;20.00;46.20;;;;;;4127741;28;20061;-73
2021/01/04 20:21:50;;;;;;;4.03;1.98;;;20.00;46.10;;;;;;4142454;28;20084;-73
2021/01/04 20:24:14;;;;;;;4.35;1.42;;;20.00;46.00;;;;;;4132670;28;20583;-65
2021/01/04 20:26:39;;;;;;;3.85;1.40;;;20.00;46.10;;;;;;4136666;28;20057;-70
2021/01/04 20:29:01;;;;;;;4.95;1.58;;;20.00;46.20;;;;;;4133506;28;20137;-76
2021/01/04 20:35:49;;;;;;;4.38;1.60;;;20.10;46.10;;;;;;4554241;22;20179;-64
2021/01/04 20:38:10;;;;;;;5.45;2.03;;;20.10;46.00;;;;;;4175760;28;20518;-63
2021/01/04 20:40:31;;;;;;;3.55;1.40;;;20.00;46.50;;;;;;4175772;28;20055;-63
2021/01/04 20:42:52;;;;;;;7.47;1.83;;;20.10;46.00;;;;;;4176520;28;20051;-71
2021/01/04 20:45:16;;;;;;;5.25;1.90;;;20.10;46.80;;;;;;4169174;28;20083;-69
2021/01/04 20:47:38;;;;;;;9.85;2.30;;;20.10;46.60;;;;;;4174475;28;20056;-68
2021/01/04 20:49:59;;;;;;;9.63;2.97;;;20.10;46.30;;;;;;4164524;28;20103;-72
2021/01/04 20:52:23;;;;;;;8.02;5.38;;;20.00;45.60;;;;;;4176522;28;20056;-71
2021/01/04 20:54:43;;;;;;;6.47;5.68;;;19.50;37.80;;;;;;4175602;28;20055;-71
2021/01/04 20:57:06;;;;;;;7.97;5.75;;;18.70;37.00;;;;;;4175655;28;20234;-71
2021/01/04 20:59:26;;;;;;;8.40;6.75;;;18.20;37.10;;;;;;4155206;28;20813;-71
2021/01/04 21:01:48;;;;;;;7.70;6.90;;;18.00;37.60;;;;;;4177132;28;20114;-71
2021/01/04 21:04:12;;;;;;;9.52;7.22;;;17.60;36.60;;;;;;4178611;28;20098;-71
2021/01/04 21:06:35;;;;;;;8.43;6.95;;;17.10;37.30;;;;;;4179070;28;20134;-71
2021/01/04 21:08:56;;;;;;;8.50;7.38;;;16.90;37.40;;;;;;4191870;28;20059;-71
2021/01/04 21:11:16;;;;;;;7.88;6.97;;;16.60;37.50;;;;;;4179524;28;20469;-67
